Meers, Oklahoma
Current Conditions -  °F | °C
As of 3:58 PM on Monday 26 Jan 2015 (Local Time) from KFSI Reporting Station
Clear Clear  
Wind Chill: 78°   Ceiling: Unl
Heat Index: 78°   Visibility: 10mi
Dew Point: 35°   Wind: 10mph
Humidity: 21%   Direction: 280°W
Pressure: 30.04"   Gusts: NA
Location:  34.78°N, 98.58°W
Report Text: KFSI 262158Z AUTO 28009KT 10SM CLR 26/02 A3004 RMK AO2 SLP171 T02580019
Loading
Personal Weather Stations






























Interactive Weather Map New forecast layout! Learn more

10-Day Weather Forecast

Advertisements
Track Severe Weather on mobile